sensor_id;sensor_type;location;lat;lon;timestamp;P1;durP1;ratioP1;P2;durP2;ratioP2
8401;SDS011;4238;48.404;9.498;2023-03-08T00:00:14;7.20;;;5.20;;
8401;SDS011;4238;48.404;9.498;2023-03-08T00:02:42;8.97;;;5.50;;
8401;SDS011;4238;48.404;9.498;2023-03-08T00:05:11;7.27;;;5.00;;
8401;SDS011;4238;48.404;9.498;2023-03-08T00:07:37;8.30;;;5.50;;
8401;SDS011;4238;48.404;9.498;2023-03-08T00:10:04;6.50;;;5.20;;
8401;SDS011;4238;48.404;9.498;2023-03-08T00:12:32;8.50;;;5.73;;
8401;SDS011;4238;48.404;9.498;2023-03-08T00:14:59;7.00;;;4.93;;
8401;SDS011;4238;48.404;9.498;2023-03-08T00:17:26;8.30;;;5.53;;
8401;SDS011;4238;48.404;9.498;2023-03-08T00:19:52;7.57;;;5.73;;
8401;SDS011;4238;48.404;9.498;2023-03-08T00:22:21;7.27;;;5.80;;
8401;SDS011;4238;48.404;9.498;2023-03-08T00:24:48;7.07;;;5.50;;
8401;SDS011;4238;48.404;9.498;2023-03-08T00:27:14;7.27;;;6.37;;
8401;SDS011;4238;48.404;9.498;2023-03-08T00:29:41;10.57;;;6.37;;
8401;SDS011;4238;48.404;9.498;2023-03-08T00:32:08;6.83;;;5.33;;
8401;SDS011;4238;48.404;9.498;2023-03-08T00:34:35;6.77;;;5.30;;
8401;SDS011;4238;48.404;9.498;2023-03-08T00:37:02;6.23;;;5.07;;
8401;SDS011;4238;48.404;9.498;2023-03-08T00:39:30;8.60;;;5.23;;
8401;SDS011;4238;48.404;9.498;2023-03-08T00:41:57;7.00;;;5.03;;
8401;SDS011;4238;48.404;9.498;2023-03-08T00:44:24;6.37;;;5.03;;
8401;SDS011;4238;48.404;9.498;2023-03-08T00:46:51;7.73;;;5.63;;
8401;SDS011;4238;48.404;9.498;2023-03-08T00:49:18;8.70;;;5.43;;
8401;SDS011;4238;48.404;9.498;2023-03-08T00:51:46;6.30;;;5.13;;
8401;SDS011;4238;48.404;9.498;2023-03-08T00:54:13;6.80;;;5.37;;
8401;SDS011;4238;48.404;9.498;2023-03-08T00:56:42;6.73;;;4.97;;
8401;SDS011;4238;48.404;9.498;2023-03-08T00:59:08;6.13;;;5.17;;
8401;SDS011;4238;48.404;9.498;2023-03-08T01:01:35;6.20;;;4.83;;
8401;SDS011;4238;48.404;9.498;2023-03-08T01:04:02;6.67;;;5.07;;
8401;SDS011;4238;48.404;9.498;2023-03-08T01:06:29;7.80;;;4.97;;
8401;SDS011;4238;48.404;9.498;2023-03-08T01:08:56;7.67;;;5.57;;
8401;SDS011;4238;48.404;9.498;2023-03-08T01:11:23;6.77;;;5.03;;
8401;SDS011;4238;48.404;9.498;2023-03-08T01:13:53;8.37;;;5.37;;
8401;SDS011;4238;48.404;9.498;2023-03-08T01:16:21;6.57;;;4.40;;
8401;SDS011;4238;48.404;9.498;2023-03-08T01:18:49;7.13;;;5.17;;
8401;SDS011;4238;48.404;9.498;2023-03-08T01:21:16;6.33;;;5.33;;
8401;SDS011;4238;48.404;9.498;2023-03-08T01:23:43;7.40;;;5.27;;
8401;SDS011;4238;48.404;9.498;2023-03-08T01:26:11;7.83;;;5.63;;
8401;SDS011;4238;48.404;9.498;2023-03-08T01:28:39;6.37;;;5.30;;
8401;SDS011;4238;48.404;9.498;2023-03-08T01:31:09;6.63;;;4.77;;
8401;SDS011;4238;48.404;9.498;2023-03-08T01:33:37;6.47;;;5.40;;
8401;SDS011;4238;48.404;9.498;2023-03-08T01:36:05;6.10;;;5.20;;
8401;SDS011;4238;48.404;9.498;2023-03-08T01:38:33;7.90;;;5.40;;
8401;SDS011;4238;48.404;9.498;2023-03-08T01:41:01;7.73;;;5.40;;
8401;SDS011;4238;48.404;9.498;2023-03-08T01:43:30;7.33;;;5.33;;
8401;SDS011;4238;48.404;9.498;2023-03-08T01:46:06;7.87;;;5.23;;
8401;SDS011;4238;48.404;9.498;2023-03-08T01:48:48;9.50;;;6.03;;
8401;SDS011;4238;48.404;9.498;2023-03-08T01:51:19;8.07;;;5.80;;
8401;SDS011;4238;48.404;9.498;2023-03-08T01:53:52;8.23;;;5.80;;
8401;SDS011;4238;48.404;9.498;2023-03-08T01:56:20;8.10;;;5.20;;
8401;SDS011;4238;48.404;9.498;2023-03-08T01:58:48;7.37;;;5.27;;
8401;SDS011;4238;48.404;9.498;2023-03-08T02:01:18;6.93;;;5.80;;
8401;SDS011;4238;48.404;9.498;2023-03-08T02:03:45;8.10;;;5.77;;
8401;SDS011;4238;48.404;9.498;2023-03-08T02:06:14;6.67;;;5.23;;
8401;SDS011;4238;48.404;9.498;2023-03-08T02:08:42;8.90;;;5.77;;
8401;SDS011;4238;48.404;9.498;2023-03-08T02:11:09;9.67;;;6.10;;
8401;SDS011;4238;48.404;9.498;2023-03-08T02:13:38;9.40;;;6.10;;
8401;SDS011;4238;48.404;9.498;2023-03-08T02:16:05;7.37;;;5.50;;
8401;SDS011;4238;48.404;9.498;2023-03-08T02:18:36;6.07;;;5.10;;
8401;SDS011;4238;48.404;9.498;2023-03-08T02:21:15;9.57;;;6.40;;
8401;SDS011;4238;48.404;9.498;2023-03-08T02:23:43;7.27;;;5.43;;
8401;SDS011;4238;48.404;9.498;2023-03-08T02:26:10;7.63;;;5.53;;
8401;SDS011;4238;48.404;9.498;2023-03-08T02:28:37;7.00;;;5.47;;
8401;SDS011;4238;48.404;9.498;2023-03-08T02:31:04;7.67;;;6.17;;
8401;SDS011;4238;48.404;9.498;2023-03-08T02:33:31;7.37;;;5.90;;
8401;SDS011;4238;48.404;9.498;2023-03-08T02:35:59;8.40;;;5.33;;
8401;SDS011;4238;48.404;9.498;2023-03-08T02:38:27;8.87;;;6.10;;
8401;SDS011;4238;48.404;9.498;2023-03-08T02:40:55;7.43;;;5.10;;
8401;SDS011;4238;48.404;9.498;2023-03-08T02:43:22;7.40;;;5.87;;
8401;SDS011;4238;48.404;9.498;2023-03-08T02:45:49;8.70;;;6.77;;
8401;SDS011;4238;48.404;9.498;2023-03-08T02:48:16;6.93;;;5.73;;
8401;SDS011;4238;48.404;9.498;2023-03-08T02:50:44;7.53;;;5.90;;
8401;SDS011;4238;48.404;9.498;2023-03-08T02:53:11;7.40;;;5.73;;
8401;SDS011;4238;48.404;9.498;2023-03-08T02:55:38;9.73;;;6.77;;
8401;SDS011;4238;48.404;9.498;2023-03-08T02:58:06;6.73;;;5.80;;
8401;SDS011;4238;48.404;9.498;2023-03-08T03:00:34;7.43;;;5.73;;
8401;SDS011;4238;48.404;9.498;2023-03-08T03:03:02;10.10;;;6.70;;
8401;SDS011;4238;48.404;9.498;2023-03-08T03:05:29;10.47;;;6.37;;
8401;SDS011;4238;48.404;9.498;2023-03-08T03:07:56;9.03;;;6.93;;
8401;SDS011;4238;48.404;9.498;2023-03-08T03:10:23;10.47;;;6.70;;
8401;SDS011;4238;48.404;9.498;2023-03-08T03:12:51;9.93;;;6.40;;
8401;SDS011;4238;48.404;9.498;2023-03-08T03:15:19;10.70;;;8.13;;
8401;SDS011;4238;48.404;9.498;2023-03-08T03:17:46;11.73;;;6.70;;
8401;SDS011;4238;48.404;9.498;2023-03-08T03:20:13;7.40;;;6.10;;
8401;SDS011;4238;48.404;9.498;2023-03-08T03:22:40;9.97;;;6.40;;
8401;SDS011;4238;48.404;9.498;2023-03-08T03:25:09;8.03;;;6.23;;
8401;SDS011;4238;48.404;9.498;2023-03-08T03:27:36;8.37;;;6.57;;
8401;SDS011;4238;48.404;9.498;2023-03-08T03:30:03;9.87;;;7.23;;
8401;SDS011;4238;48.404;9.498;2023-03-08T03:32:32;8.80;;;7.00;;
8401;SDS011;4238;48.404;9.498;2023-03-08T03:34:59;10.93;;;6.70;;
8401;SDS011;4238;48.404;9.498;2023-03-08T03:37:26;8.33;;;7.17;;
8401;SDS011;4238;48.404;9.498;2023-03-08T03:39:53;9.67;;;6.97;;
8401;SDS011;4238;48.404;9.498;2023-03-08T03:42:20;12.77;;;7.50;;
8401;SDS011;4238;48.404;9.498;2023-03-08T03:44:47;9.10;;;7.30;;
8401;SDS011;4238;48.404;9.498;2023-03-08T03:47:14;9.50;;;7.50;;
8401;SDS011;4238;48.404;9.498;2023-03-08T03:49:42;8.30;;;6.77;;
8401;SDS011;4238;48.404;9.498;2023-03-08T03:52:09;9.63;;;7.57;;
8401;SDS011;4238;48.404;9.498;2023-03-08T03:54:36;8.07;;;6.57;;
8401;SDS011;4238;48.404;9.498;2023-03-08T03:57:03;8.57;;;6.83;;
8401;SDS011;4238;48.404;9.498;2023-03-08T03:59:30;9.27;;;7.23;;
8401;SDS011;4238;48.404;9.498;2023-03-08T04:01:58;10.90;;;7.07;;
8401;SDS011;4238;48.404;9.498;2023-03-08T04:04:25;8.40;;;6.67;;
8401;SDS011;4238;48.404;9.498;2023-03-08T04:06:53;10.80;;;7.30;;
8401;SDS011;4238;48.404;9.498;2023-03-08T04:09:20;10.83;;;7.50;;
8401;SDS011;4238;48.404;9.498;2023-03-08T04:11:47;12.73;;;8.13;;
8401;SDS011;4238;48.404;9.498;2023-03-08T04:14:14;10.97;;;7.17;;
8401;SDS011;4238;48.404;9.498;2023-03-08T04:16:41;12.23;;;8.00;;
8401;SDS011;4238;48.404;9.498;2023-03-08T04:19:10;10.27;;;7.40;;
8401;SDS011;4238;48.404;9.498;2023-03-08T04:21:38;11.87;;;8.00;;
8401;SDS011;4238;48.404;9.498;2023-03-08T04:24:06;11.23;;;8.20;;
8401;SDS011;4238;48.404;9.498;2023-03-08T04:26:33;9.13;;;7.30;;
8401;SDS011;4238;48.404;9.498;2023-03-08T04:29:01;11.00;;;7.90;;
8401;SDS011;4238;48.404;9.498;2023-03-08T04:31:30;13.43;;;8.20;;
8401;SDS011;4238;48.404;9.498;2023-03-08T04:34:01;14.10;;;8.63;;
8401;SDS011;4238;48.404;9.498;2023-03-08T04:36:28;13.17;;;8.17;;
8401;SDS011;4238;48.404;9.498;2023-03-08T04:38:56;16.23;;;9.17;;
8401;SDS011;4238;48.404;9.498;2023-03-08T04:41:24;14.43;;;8.20;;
8401;SDS011;4238;48.404;9.498;2023-03-08T04:43:52;13.93;;;8.43;;
8401;SDS011;4238;48.404;9.498;2023-03-08T04:46:21;15.27;;;9.03;;
8401;SDS011;4238;48.404;9.498;2023-03-08T04:48:50;12.87;;;8.73;;
8401;SDS011;4238;48.404;9.498;2023-03-08T04:51:19;13.13;;;9.63;;
8401;SDS011;4238;48.404;9.498;2023-03-08T04:53:47;13.67;;;8.83;;
8401;SDS011;4238;48.404;9.498;2023-03-08T04:56:14;12.77;;;8.63;;
8401;SDS011;4238;48.404;9.498;2023-03-08T04:58:43;14.50;;;9.70;;
8401;SDS011;4238;48.404;9.498;2023-03-08T05:01:11;13.60;;;9.70;;
8401;SDS011;4238;48.404;9.498;2023-03-08T05:03:39;11.97;;;8.83;;
8401;SDS011;4238;48.404;9.498;2023-03-08T05:06:06;11.57;;;8.67;;
8401;SDS011;4238;48.404;9.498;2023-03-08T05:08:33;12.83;;;8.83;;
8401;SDS011;4238;48.404;9.498;2023-03-08T05:11:01;14.63;;;9.60;;
8401;SDS011;4238;48.404;9.498;2023-03-08T05:13:30;13.70;;;8.90;;
8401;SDS011;4238;48.404;9.498;2023-03-08T05:16:00;14.03;;;9.00;;
8401;SDS011;4238;48.404;9.498;2023-03-08T05:18:27;13.77;;;9.33;;
8401;SDS011;4238;48.404;9.498;2023-03-08T05:20:55;12.23;;;10.07;;
8401;SDS011;4238;48.404;9.498;2023-03-08T05:23:23;15.43;;;9.60;;
8401;SDS011;4238;48.404;9.498;2023-03-08T05:25:51;17.63;;;9.77;;
8401;SDS011;4238;48.404;9.498;2023-03-08T05:28:19;16.13;;;9.13;;
8401;SDS011;4238;48.404;9.498;2023-03-08T05:30:47;15.67;;;9.63;;
8401;SDS011;4238;48.404;9.498;2023-03-08T05:33:15;16.27;;;10.73;;
8401;SDS011;4238;48.404;9.498;2023-03-08T05:35:43;14.73;;;9.70;;
8401;SDS011;4238;48.404;9.498;2023-03-08T05:38:18;18.53;;;11.13;;
8401;SDS011;4238;48.404;9.498;2023-03-08T05:40:45;15.47;;;11.43;;
8401;SDS011;4238;48.404;9.498;2023-03-08T05:43:12;17.03;;;10.47;;
8401;SDS011;4238;48.404;9.498;2023-03-08T05:45:39;13.37;;;9.63;;
8401;SDS011;4238;48.404;9.498;2023-03-08T05:48:06;14.60;;;10.50;;
8401;SDS011;4238;48.404;9.498;2023-03-08T05:50:35;13.17;;;9.73;;
8401;SDS011;4238;48.404;9.498;2023-03-08T05:53:03;16.87;;;10.37;;
8401;SDS011;4238;48.404;9.498;2023-03-08T05:55:30;17.63;;;10.80;;
8401;SDS011;4238;48.404;9.498;2023-03-08T05:57:56;13.67;;;9.63;;
8401;SDS011;4238;48.404;9.498;2023-03-08T06:00:24;14.93;;;10.17;;
8401;SDS011;4238;48.404;9.498;2023-03-08T06:02:51;16.27;;;11.20;;
8401;SDS011;4238;48.404;9.498;2023-03-08T06:05:18;15.80;;;11.20;;
8401;SDS011;4238;48.404;9.498;2023-03-08T06:07:46;16.23;;;11.37;;
8401;SDS011;4238;48.404;9.498;2023-03-08T06:10:13;33.17;;;29.87;;
8401;SDS011;4238;48.404;9.498;2023-03-08T06:12:41;12.37;;;10.73;;
8401;SDS011;4238;48.404;9.498;2023-03-08T06:15:08;18.37;;;12.23;;
8401;SDS011;4238;48.404;9.498;2023-03-08T06:17:36;22.93;;;16.63;;
8401;SDS011;4238;48.404;9.498;2023-03-08T06:20:03;18.90;;;12.30;;
8401;SDS011;4238;48.404;9.498;2023-03-08T06:22:30;15.23;;;10.97;;
8401;SDS011;4238;48.404;9.498;2023-03-08T06:24:59;19.85;;;16.10;;
8401;SDS011;4238;48.404;9.498;2023-03-08T06:27:26;15.57;;;11.50;;
8401;SDS011;4238;48.404;9.498;2023-03-08T06:29:53;21.33;;;12.60;;
8401;SDS011;4238;48.404;9.498;2023-03-08T06:32:20;14.63;;;10.77;;
8401;SDS011;4238;48.404;9.498;2023-03-08T06:34:47;24.80;;;15.50;;
8401;SDS011;4238;48.404;9.498;2023-03-08T06:37:14;15.80;;;10.60;;
8401;SDS011;4238;48.404;9.498;2023-03-08T06:39:41;17.00;;;11.30;;
8401;SDS011;4238;48.404;9.498;2023-03-08T06:42:09;17.70;;;11.40;;
8401;SDS011;4238;48.404;9.498;2023-03-08T06:44:36;15.00;;;11.20;;
8401;SDS011;4238;48.404;9.498;2023-03-08T06:47:03;15.57;;;11.43;;
8401;SDS011;4238;48.404;9.498;2023-03-08T06:49:30;19.97;;;11.53;;
8401;SDS011;4238;48.404;9.498;2023-03-08T06:51:57;16.33;;;11.60;;
8401;SDS011;4238;48.404;9.498;2023-03-08T06:54:24;14.33;;;11.60;;
8401;SDS011;4238;48.404;9.498;2023-03-08T06:56:50;16.67;;;11.60;;
8401;SDS011;4238;48.404;9.498;2023-03-08T06:59:19;17.43;;;12.03;;
8401;SDS011;4238;48.404;9.498;2023-03-08T07:01:48;15.97;;;10.93;;
8401;SDS011;4238;48.404;9.498;2023-03-08T07:04:15;16.17;;;10.90;;
8401;SDS011;4238;48.404;9.498;2023-03-08T07:06:43;14.77;;;10.30;;
8401;SDS011;4238;48.404;9.498;2023-03-08T07:09:10;16.83;;;10.63;;
8401;SDS011;4238;48.404;9.498;2023-03-08T07:11:37;16.97;;;11.10;;
8401;SDS011;4238;48.404;9.498;2023-03-08T07:14:04;15.83;;;9.83;;
8401;SDS011;4238;48.404;9.498;2023-03-08T07:16:32;16.80;;;11.10;;
8401;SDS011;4238;48.404;9.498;2023-03-08T07:19:00;15.43;;;10.77;;
8401;SDS011;4238;48.404;9.498;2023-03-08T07:21:27;17.33;;;10.63;;
8401;SDS011;4238;48.404;9.498;2023-03-08T07:23:54;16.07;;;10.47;;
8401;SDS011;4238;48.404;9.498;2023-03-08T07:26:21;16.70;;;11.10;;
8401;SDS011;4238;48.404;9.498;2023-03-08T07:28:48;15.33;;;10.77;;
8401;SDS011;4238;48.404;9.498;2023-03-08T07:31:15;15.43;;;11.30;;
8401;SDS011;4238;48.404;9.498;2023-03-08T07:33:44;16.40;;;10.87;;
8401;SDS011;4238;48.404;9.498;2023-03-08T07:36:11;16.13;;;9.97;;
8401;SDS011;4238;48.404;9.498;2023-03-08T07:38:38;13.90;;;9.37;;
8401;SDS011;4238;48.404;9.498;2023-03-08T07:41:05;17.50;;;10.27;;
8401;SDS011;4238;48.404;9.498;2023-03-08T07:43:32;13.10;;;9.37;;
8401;SDS011;4238;48.404;9.498;2023-03-08T07:45:59;12.63;;;9.83;;
8401;SDS011;4238;48.404;9.498;2023-03-08T07:48:27;11.07;;;9.00;;
8401;SDS011;4238;48.404;9.498;2023-03-08T07:50:58;13.43;;;8.97;;
8401;SDS011;4238;48.404;9.498;2023-03-08T07:53:27;14.70;;;10.53;;
8401;SDS011;4238;48.404;9.498;2023-03-08T07:55:55;12.67;;;10.03;;
8401;SDS011;4238;48.404;9.498;2023-03-08T07:58:22;16.17;;;10.43;;
8401;SDS011;4238;48.404;9.498;2023-03-08T08:00:50;16.40;;;10.67;;
8401;SDS011;4238;48.404;9.498;2023-03-08T08:03:17;15.90;;;10.30;;
8401;SDS011;4238;48.404;9.498;2023-03-08T08:05:44;10.80;;;9.67;;
8401;SDS011;4238;48.404;9.498;2023-03-08T08:08:12;14.97;;;9.90;;
8401;SDS011;4238;48.404;9.498;2023-03-08T08:10:39;13.23;;;10.10;;
8401;SDS011;4238;48.404;9.498;2023-03-08T08:13:06;13.23;;;9.50;;
8401;SDS011;4238;48.404;9.498;2023-03-08T08:15:33;13.57;;;10.07;;
8401;SDS011;4238;48.404;9.498;2023-03-08T08:18:00;13.43;;;9.03;;
8401;SDS011;4238;48.404;9.498;2023-03-08T08:20:28;13.43;;;9.27;;
8401;SDS011;4238;48.404;9.498;2023-03-08T08:22:55;14.57;;;9.57;;
8401;SDS011;4238;48.404;9.498;2023-03-08T08:25:23;11.33;;;8.47;;
8401;SDS011;4238;48.404;9.498;2023-03-08T08:27:50;10.30;;;8.43;;
8401;SDS011;4238;48.404;9.498;2023-03-08T08:30:17;14.10;;;8.93;;
8401;SDS011;4238;48.404;9.498;2023-03-08T08:32:44;13.50;;;8.97;;
8401;SDS011;4238;48.404;9.498;2023-03-08T08:35:11;11.40;;;8.87;;
8401;SDS011;4238;48.404;9.498;2023-03-08T08:37:38;10.37;;;7.90;;
8401;SDS011;4238;48.404;9.498;2023-03-08T08:40:06;11.57;;;8.53;;
8401;SDS011;4238;48.404;9.498;2023-03-08T08:42:35;10.70;;;7.73;;
8401;SDS011;4238;48.404;9.498;2023-03-08T08:45:03;10.40;;;8.03;;
8401;SDS011;4238;48.404;9.498;2023-03-08T08:47:31;12.00;;;7.73;;
8401;SDS011;4238;48.404;9.498;2023-03-08T08:49:57;8.80;;;7.20;;
8401;SDS011;4238;48.404;9.498;2023-03-08T08:52:24;10.63;;;8.23;;
8401;SDS011;4238;48.404;9.498;2023-03-08T08:54:51;10.10;;;7.40;;
8401;SDS011;4238;48.404;9.498;2023-03-08T08:57:18;9.57;;;7.13;;
8401;SDS011;4238;48.404;9.498;2023-03-08T08:59:46;9.93;;;7.73;;
8401;SDS011;4238;48.404;9.498;2023-03-08T09:02:13;7.60;;;6.80;;
8401;SDS011;4238;48.404;9.498;2023-03-08T09:04:40;11.67;;;7.40;;
8401;SDS011;4238;48.404;9.498;2023-03-08T09:07:07;11.50;;;7.63;;
8401;SDS011;4238;48.404;9.498;2023-03-08T09:09:34;7.43;;;6.57;;
8401;SDS011;4238;48.404;9.498;2023-03-08T09:12:01;8.67;;;6.40;;
8401;SDS011;4238;48.404;9.498;2023-03-08T09:14:28;7.10;;;6.40;;
8401;SDS011;4238;48.404;9.498;2023-03-08T09:16:56;8.07;;;6.67;;
8401;SDS011;4238;48.404;9.498;2023-03-08T09:19:23;10.73;;;6.70;;
8401;SDS011;4238;48.404;9.498;2023-03-08T09:21:50;8.13;;;6.60;;
8401;SDS011;4238;48.404;9.498;2023-03-08T09:24:17;7.63;;;5.93;;
8401;SDS011;4238;48.404;9.498;2023-03-08T09:26:44;8.30;;;6.43;;
8401;SDS011;4238;48.404;9.498;2023-03-08T09:29:11;7.80;;;6.00;;
8401;SDS011;4238;48.404;9.498;2023-03-08T09:31:38;8.00;;;5.97;;
8401;SDS011;4238;48.404;9.498;2023-03-08T09:34:09;7.67;;;5.67;;
8401;SDS011;4238;48.404;9.498;2023-03-08T09:36:38;7.33;;;6.20;;
8401;SDS011;4238;48.404;9.498;2023-03-08T09:39:05;7.07;;;5.63;;
8401;SDS011;4238;48.404;9.498;2023-03-08T09:41:36;6.27;;;5.47;;
8401;SDS011;4238;48.404;9.498;2023-03-08T09:44:15;7.90;;;5.27;;
8401;SDS011;4238;48.404;9.498;2023-03-08T09:46:53;6.50;;;5.20;;
8401;SDS011;4238;48.404;9.498;2023-03-08T09:49:27;6.63;;;5.30;;
8401;SDS011;4238;48.404;9.498;2023-03-08T09:51:58;7.00;;;5.30;;
8401;SDS011;4238;48.404;9.498;2023-03-08T09:54:32;6.60;;;5.60;;
8401;SDS011;4238;48.404;9.498;2023-03-08T09:57:02;6.50;;;5.33;;
8401;SDS011;4238;48.404;9.498;2023-03-08T09:59:36;7.33;;;5.57;;
8401;SDS011;4238;48.404;9.498;2023-03-08T10:02:12;5.77;;;5.17;;
8401;SDS011;4238;48.404;9.498;2023-03-08T10:04:52;7.43;;;5.30;;
8401;SDS011;4238;48.404;9.498;2023-03-08T10:07:31;5.23;;;4.83;;
8401;SDS011;4238;48.404;9.498;2023-03-08T10:10:26;5.23;;;4.73;;
8401;SDS011;4238;48.404;9.498;2023-03-08T10:13:02;4.97;;;4.47;;
8401;SDS011;4238;48.404;9.498;2023-03-08T10:15:38;5.37;;;4.87;;
8401;SDS011;4238;48.404;9.498;2023-03-08T10:18:09;4.67;;;4.27;;
8401;SDS011;4238;48.404;9.498;2023-03-08T10:20:43;4.70;;;4.20;;
8401;SDS011;4238;48.404;9.498;2023-03-08T10:23:13;4.10;;;3.70;;
8401;SDS011;4238;48.404;9.498;2023-03-08T10:25:42;4.90;;;4.43;;
8401;SDS011;4238;48.404;9.498;2023-03-08T10:28:11;5.87;;;4.13;;
8401;SDS011;4238;48.404;9.498;2023-03-08T10:30:40;5.23;;;4.10;;
8401;SDS011;4238;48.404;9.498;2023-03-08T10:33:10;3.83;;;3.50;;
8401;SDS011;4238;48.404;9.498;2023-03-08T10:35:51;4.07;;;3.67;;
8401;SDS011;4238;48.404;9.498;2023-03-08T10:38:20;3.70;;;3.27;;
8401;SDS011;4238;48.404;9.498;2023-03-08T10:40:47;3.50;;;3.23;;
8401;SDS011;4238;48.404;9.498;2023-03-08T10:43:17;4.50;;;3.20;;
8401;SDS011;4238;48.404;9.498;2023-03-08T10:45:56;3.60;;;3.30;;
8401;SDS011;4238;48.404;9.498;2023-03-08T10:48:25;2.97;;;2.67;;
8401;SDS011;4238;48.404;9.498;2023-03-08T10:50:58;3.63;;;2.90;;
8401;SDS011;4238;48.404;9.498;2023-03-08T10:53:27;2.50;;;2.30;;
8401;SDS011;4238;48.404;9.498;2023-03-08T10:55:55;2.63;;;2.43;;
8401;SDS011;4238;48.404;9.498;2023-03-08T10:58:31;2.40;;;2.20;;
8401;SDS011;4238;48.404;9.498;2023-03-08T11:01:01;2.13;;;2.03;;
8401;SDS011;4238;48.404;9.498;2023-03-08T11:03:30;2.30;;;2.20;;
8401;SDS011;4238;48.404;9.498;2023-03-08T11:05:59;2.10;;;2.00;;
8401;SDS011;4238;48.404;9.498;2023-03-08T11:08:29;2.57;;;2.37;;
8401;SDS011;4238;48.404;9.498;2023-03-08T11:11:01;1.80;;;1.70;;
8401;SDS011;4238;48.404;9.498;2023-03-08T11:13:30;1.80;;;1.70;;
8401;SDS011;4238;48.404;9.498;2023-03-08T11:16:02;2.97;;;2.03;;
8401;SDS011;4238;48.404;9.498;2023-03-08T11:18:50;1.70;;;1.60;;
8401;SDS011;4238;48.404;9.498;2023-03-08T11:21:28;1.50;;;1.40;;
8401;SDS011;4238;48.404;9.498;2023-03-08T11:24:04;1.63;;;1.37;;
8401;SDS011;4238;48.404;9.498;2023-03-08T11:26:43;3.70;;;1.47;;
8401;SDS011;4238;48.404;9.498;2023-03-08T11:29:22;1.60;;;1.50;;
8401;SDS011;4238;48.404;9.498;2023-03-08T11:31:57;1.47;;;1.37;;
8401;SDS011;4238;48.404;9.498;2023-03-08T11:34:44;1.50;;;1.40;;
8401;SDS011;4238;48.404;9.498;2023-03-08T11:37:34;0.80;;;0.77;;
8401;SDS011;4238;48.404;9.498;2023-03-08T11:40:13;1.67;;;1.30;;
8401;SDS011;4238;48.404;9.498;2023-03-08T11:42:52;0.97;;;0.97;;
8401;SDS011;4238;48.404;9.498;2023-03-08T11:45:31;1.47;;;1.00;;
8401;SDS011;4238;48.404;9.498;2023-03-08T11:48:14;1.03;;;1.03;;
8401;SDS011;4238;48.404;9.498;2023-03-08T11:51:04;1.47;;;1.30;;
8401;SDS011;4238;48.404;9.498;2023-03-08T11:53:41;1.10;;;1.00;;
8401;SDS011;4238;48.404;9.498;2023-03-08T11:56:20;1.43;;;1.33;;
8401;SDS011;4238;48.404;9.498;2023-03-08T11:59:04;1.33;;;1.23;;
8401;SDS011;4238;48.404;9.498;2023-03-08T12:01:36;2.03;;;1.43;;
8401;SDS011;4238;48.404;9.498;2023-03-08T12:04:07;2.00;;;1.70;;
8401;SDS011;4238;48.404;9.498;2023-03-08T12:06:38;2.30;;;1.73;;
8401;SDS011;4238;48.404;9.498;2023-03-08T12:09:11;1.90;;;1.80;;
8401;SDS011;4238;48.404;9.498;2023-03-08T12:11:48;1.70;;;1.60;;
8401;SDS011;4238;48.404;9.498;2023-03-08T12:14:20;1.30;;;1.30;;
8401;SDS011;4238;48.404;9.498;2023-03-08T12:16:51;1.40;;;1.30;;
8401;SDS011;4238;48.404;9.498;2023-03-08T12:19:27;0.90;;;0.90;;
8401;SDS011;4238;48.404;9.498;2023-03-08T12:22:05;2.23;;;2.03;;
8401;SDS011;4238;48.404;9.498;2023-03-08T12:24:43;1.70;;;1.37;;
8401;SDS011;4238;48.404;9.498;2023-03-08T12:27:16;2.17;;;1.50;;
8401;SDS011;4238;48.404;9.498;2023-03-08T12:29:50;1.80;;;1.47;;
8401;SDS011;4238;48.404;9.498;2023-03-08T12:32:24;1.80;;;1.40;;
8401;SDS011;4238;48.404;9.498;2023-03-08T12:34:59;0.73;;;0.73;;
8401;SDS011;4238;48.404;9.498;2023-03-08T12:37:28;1.80;;;1.70;;
8401;SDS011;4238;48.404;9.498;2023-03-08T12:40:01;3.37;;;1.50;;
8401;SDS011;4238;48.404;9.498;2023-03-08T12:42:32;0.80;;;0.80;;
8401;SDS011;4238;48.404;9.498;2023-03-08T12:45:12;1.77;;;1.67;;
8401;SDS011;4238;48.404;9.498;2023-03-08T12:48:00;1.43;;;1.30;;
8401;SDS011;4238;48.404;9.498;2023-03-08T12:50:43;1.87;;;1.13;;
8401;SDS011;4238;48.404;9.498;2023-03-08T12:53:30;1.00;;;1.00;;
8401;SDS011;4238;48.404;9.498;2023-03-08T12:56:03;1.20;;;1.20;;
8401;SDS011;4238;48.404;9.498;2023-03-08T12:58:32;1.57;;;1.47;;
8401;SDS011;4238;48.404;9.498;2023-03-08T13:01:02;1.70;;;1.60;;
8401;SDS011;4238;48.404;9.498;2023-03-08T13:03:35;0.50;;;0.50;;
8401;SDS011;4238;48.404;9.498;2023-03-08T13:06:14;1.50;;;0.93;;
8401;SDS011;4238;48.404;9.498;2023-03-08T13:08:57;2.60;;;2.40;;
8401;SDS011;4238;48.404;9.498;2023-03-08T13:11:37;3.20;;;2.80;;
8401;SDS011;4238;48.404;9.498;2023-03-08T13:14:21;0.60;;;0.60;;
8401;SDS011;4238;48.404;9.498;2023-03-08T13:16:50;0.90;;;0.90;;
8401;SDS011;4238;48.404;9.498;2023-03-08T13:19:20;0.37;;;0.37;;
8401;SDS011;4238;48.404;9.498;2023-03-08T13:21:53;0.47;;;0.47;;
8401;SDS011;4238;48.404;9.498;2023-03-08T13:24:31;2.27;;;0.70;;
8401;SDS011;4238;48.404;9.498;2023-03-08T13:27:17;0.50;;;0.50;;
8401;SDS011;4238;48.404;9.498;2023-03-08T13:29:49;0.40;;;0.40;;
8401;SDS011;4238;48.404;9.498;2023-03-08T13:32:19;0.60;;;0.60;;
8401;SDS011;4238;48.404;9.498;2023-03-08T13:34:50;1.20;;;1.10;;
8401;SDS011;4238;48.404;9.498;2023-03-08T13:37:25;0.40;;;0.40;;
8401;SDS011;4238;48.404;9.498;2023-03-08T13:39:53;0.50;;;0.50;;
8401;SDS011;4238;48.404;9.498;2023-03-08T13:42:23;1.30;;;0.60;;
8401;SDS011;4238;48.404;9.498;2023-03-08T13:44:51;1.23;;;0.90;;
8401;SDS011;4238;48.404;9.498;2023-03-08T13:47:21;1.30;;;1.20;;
8401;SDS011;4238;48.404;9.498;2023-03-08T13:49:50;0.97;;;0.90;;
8401;SDS011;4238;48.404;9.498;2023-03-08T13:52:20;0.60;;;0.60;;
8401;SDS011;4238;48.404;9.498;2023-03-08T13:54:50;0.70;;;0.70;;
8401;SDS011;4238;48.404;9.498;2023-03-08T13:57:20;0.93;;;0.80;;
8401;SDS011;4238;48.404;9.498;2023-03-08T13:59:51;0.80;;;0.80;;
8401;SDS011;4238;48.404;9.498;2023-03-08T14:02:20;0.60;;;0.60;;
8401;SDS011;4238;48.404;9.498;2023-03-08T14:04:48;1.23;;;1.13;;
8401;SDS011;4238;48.404;9.498;2023-03-08T14:07:20;1.33;;;1.23;;
8401;SDS011;4238;48.404;9.498;2023-03-08T14:09:48;0.70;;;0.70;;
8401;SDS011;4238;48.404;9.498;2023-03-08T14:12:16;0.80;;;0.80;;
8401;SDS011;4238;48.404;9.498;2023-03-08T14:14:47;0.80;;;0.80;;
8401;SDS011;4238;48.404;9.498;2023-03-08T14:17:18;0.80;;;0.80;;
8401;SDS011;4238;48.404;9.498;2023-03-08T14:19:51;0.80;;;0.80;;
8401;SDS011;4238;48.404;9.498;2023-03-08T14:22:20;0.80;;;0.80;;
8401;SDS011;4238;48.404;9.498;2023-03-08T14:24:51;0.57;;;0.57;;
8401;SDS011;4238;48.404;9.498;2023-03-08T14:27:29;0.60;;;0.60;;
8401;SDS011;4238;48.404;9.498;2023-03-08T14:30:07;1.63;;;0.93;;
8401;SDS011;4238;48.404;9.498;2023-03-08T14:32:38;0.60;;;0.57;;
8401;SDS011;4238;48.404;9.498;2023-03-08T14:35:13;0.83;;;0.83;;
8401;SDS011;4238;48.404;9.498;2023-03-08T14:37:42;0.60;;;0.60;;
8401;SDS011;4238;48.404;9.498;2023-03-08T14:40:18;0.70;;;0.70;;
8401;SDS011;4238;48.404;9.498;2023-03-08T14:42:49;0.80;;;0.80;;
8401;SDS011;4238;48.404;9.498;2023-03-08T14:45:20;3.00;;;2.70;;
8401;SDS011;4238;48.404;9.498;2023-03-08T14:47:48;0.93;;;0.60;;
8401;SDS011;4238;48.404;9.498;2023-03-08T14:50:18;0.33;;;0.33;;
8401;SDS011;4238;48.404;9.498;2023-03-08T14:52:48;0.83;;;0.83;;
8401;SDS011;4238;48.404;9.498;2023-03-08T14:55:20;0.73;;;0.73;;
8401;SDS011;4238;48.404;9.498;2023-03-08T14:57:49;0.97;;;0.73;;
8401;SDS011;4238;48.404;9.498;2023-03-08T15:00:20;0.63;;;0.63;;
8401;SDS011;4238;48.404;9.498;2023-03-08T15:02:48;0.60;;;0.60;;
8401;SDS011;4238;48.404;9.498;2023-03-08T15:05:16;0.67;;;0.67;;
8401;SDS011;4238;48.404;9.498;2023-03-08T15:07:44;0.80;;;0.80;;
8401;SDS011;4238;48.404;9.498;2023-03-08T15:10:15;0.50;;;0.50;;
8401;SDS011;4238;48.404;9.498;2023-03-08T15:12:49;0.47;;;0.47;;
8401;SDS011;4238;48.404;9.498;2023-03-08T15:15:16;0.67;;;0.53;;
8401;SDS011;4238;48.404;9.498;2023-03-08T15:17:45;0.60;;;0.60;;
8401;SDS011;4238;48.404;9.498;2023-03-08T15:20:13;1.00;;;0.57;;
8401;SDS011;4238;48.404;9.498;2023-03-08T15:22:43;0.97;;;0.97;;